createdAt,value
2018-09-04T00:00:02.079Z,24.65
2018-09-04T00:01:02.037Z,24.73
2018-09-04T00:02:01.992Z,24.71
2018-09-04T00:03:01.952Z,24.69
2018-09-04T00:04:01.904Z,24.67
2018-09-04T00:05:01.861Z,24.68
2018-09-04T00:06:01.820Z,24.65
2018-09-04T00:07:01.772Z,24.67
2018-09-04T00:08:01.729Z,24.67
2018-09-04T00:09:01.689Z,24.69
2018-09-04T00:10:01.642Z,24.65
2018-09-04T00:11:01.598Z,24.68
2018-09-04T00:12:01.554Z,24.71
2018-09-04T00:13:01.510Z,24.73
2018-09-04T00:14:01.469Z,24.65
2018-09-04T00:15:01.423Z,24.64
2018-09-04T00:16:01.379Z,24.64
2018-09-04T00:17:01.335Z,24.71
2018-09-04T00:18:01.291Z,24.65
2018-09-04T00:19:01.247Z,24.67
2018-09-04T00:20:01.204Z,24.62
2018-09-04T00:21:01.160Z,24.67
2018-09-04T00:22:01.117Z,24.67
2018-09-04T00:23:01.072Z,24.53
2018-09-04T00:24:01.031Z,24.65
2018-09-04T00:25:00.985Z,24.62
2018-09-04T00:26:00.941Z,24.67
2018-09-04T00:27:00.897Z,24.65
2018-09-04T00:28:00.853Z,24.61
2018-09-04T00:29:00.809Z,24.68
2018-09-04T00:30:00.766Z,24.60
2018-09-04T00:31:00.722Z,24.60
2018-09-04T00:32:00.681Z,24.62
2018-09-04T00:33:00.634Z,24.55
2018-09-04T00:34:00.591Z,24.61
2018-09-04T00:35:00.546Z,24.67
2018-09-04T00:36:00.502Z,24.62
2018-09-04T00:37:00.459Z,24.68
2018-09-04T00:38:00.419Z,24.67
2018-09-04T00:39:00.371Z,24.65
2018-09-04T00:40:00.327Z,24.68
2018-09-04T00:41:00.285Z,24.60
2018-09-04T00:42:00.241Z,24.62
2018-09-04T00:43:00.196Z,24.60
2018-09-04T00:44:00.152Z,24.53
2018-09-04T00:45:00.108Z,24.61
2018-09-04T00:46:00.069Z,24.61
2018-09-04T00:47:00.021Z,24.53
2018-09-04T00:47:59.977Z,24.58
2018-09-04T00:48:59.933Z,24.55
2018-09-04T00:49:59.889Z,24.57
2018-09-04T00:50:59.845Z,24.53
2018-09-04T00:51:59.801Z,24.57
2018-09-04T00:52:59.758Z,24.60
2018-09-04T00:53:59.714Z,24.58
2018-09-04T00:54:59.669Z,24.62
2018-09-04T00:55:59.626Z,24.55
2018-09-04T00:56:59.582Z,24.57
2018-09-04T00:57:59.539Z,24.55
2018-09-04T00:58:59.534Z,24.58
2018-09-04T00:59:59.451Z,24.58
2018-09-04T01:00:59.407Z,24.57
2018-09-04T01:01:59.365Z,24.52
2018-09-04T01:02:59.319Z,24.55
2018-09-04T01:03:59.275Z,24.58
2018-09-04T01:04:59.232Z,24.55
2018-09-04T01:05:59.190Z,24.60
2018-09-04T01:06:59.144Z,24.53
2018-09-04T01:07:59.102Z,24.52
2018-09-04T01:08:59.056Z,24.60
2018-09-04T01:09:59.012Z,24.52
2018-09-04T01:10:58.969Z,24.50
2018-09-04T01:11:58.926Z,24.53
2018-09-04T01:12:58.881Z,24.53
2018-09-04T01:13:58.837Z,24.47
2018-09-04T01:14:58.793Z,24.60
2018-09-04T01:15:58.764Z,24.47
2018-09-04T01:16:58.706Z,24.47
2018-09-04T01:17:58.662Z,24.49
2018-09-04T01:18:58.617Z,24.50
2018-09-04T01:19:58.574Z,24.47
2018-09-04T01:20:58.530Z,24.49
2018-09-04T01:21:58.487Z,24.50
2018-09-04T01:22:58.448Z,24.50
2018-09-04T01:23:58.398Z,24.53
2018-09-04T01:24:58.354Z,24.55
2018-09-04T01:25:58.311Z,24.50
2018-09-04T01:26:58.266Z,24.47
2018-09-04T01:27:58.228Z,24.52
2018-09-04T01:28:58.178Z,24.50
2018-09-04T01:29:58.136Z,24.53
2018-09-04T01:30:58.091Z,24.47
2018-09-04T01:31:58.047Z,24.47
2018-09-04T01:32:58.003Z,24.46
2018-09-04T01:33:57.960Z,24.50
2018-09-04T01:34:57.916Z,24.53
2018-09-04T01:35:57.871Z,24.55
2018-09-04T01:36:57.830Z,24.49
2018-09-04T01:37:57.784Z,24.50
2018-09-04T01:38:57.740Z,24.55
2018-09-04T01:39:57.696Z,24.47
2018-09-04T01:40:57.652Z,24.46
2018-09-04T01:41:57.609Z,24.49
2018-09-04T01:42:57.564Z,24.40
2018-09-04T01:43:57.530Z,24.50
2018-09-04T01:44:57.477Z,24.42
2018-09-04T01:45:57.433Z,24.45
2018-09-04T01:46:57.389Z,24.46
2018-09-04T01:47:57.345Z,24.45
2018-09-04T01:48:57.302Z,24.43
2018-09-04T01:49:57.258Z,24.49
2018-09-04T01:50:57.213Z,24.49
2018-09-04T01:51:57.169Z,24.45
2018-09-04T01:52:57.133Z,24.45
2018-09-04T01:53:57.082Z,24.45
2018-09-04T01:54:57.038Z,24.43
2018-09-04T01:55:56.994Z,24.50
2018-09-04T01:56:56.950Z,24.46
2018-09-04T01:57:56.906Z,24.47
2018-09-04T01:58:56.865Z,24.50
2018-09-04T01:59:56.818Z,24.47
2018-09-04T02:00:56.775Z,24.47
2018-09-04T02:01:56.731Z,24.45
2018-09-04T02:02:56.686Z,24.43
2018-09-04T02:03:56.644Z,24.47
2018-09-04T02:04:56.599Z,24.43
2018-09-04T02:05:56.555Z,24.52
2018-09-04T02:06:56.511Z,24.46
2018-09-04T02:07:56.467Z,24.37
2018-09-04T02:08:56.425Z,24.46
2018-09-04T02:09:56.380Z,24.45
2018-09-04T02:10:56.335Z,24.43
2018-09-04T02:11:56.291Z,24.45
2018-09-04T02:12:56.247Z,24.43
2018-09-04T02:13:56.204Z,24.37
2018-09-04T02:14:56.159Z,24.46
2018-09-04T02:15:56.117Z,24.43
2018-09-04T02:16:56.077Z,24.45
2018-09-04T02:17:56.029Z,24.42
2018-09-04T02:18:55.983Z,24.45
2018-09-04T02:19:55.939Z,24.40
2018-09-04T02:20:55.896Z,24.42
2018-09-04T02:21:55.852Z,24.46
2018-09-04T02:22:55.808Z,24.43
2018-09-04T02:23:55.764Z,24.46
2018-09-04T02:24:55.720Z,24.47
2018-09-04T02:25:55.676Z,24.40
2018-09-04T02:26:55.632Z,24.45
2018-09-04T02:27:55.588Z,24.35
2018-09-04T02:28:55.544Z,24.39
2018-09-04T02:29:55.500Z,24.47
2018-09-04T02:30:55.456Z,24.43
2018-09-04T02:31:55.412Z,24.47
2018-09-04T02:32:55.414Z,24.43
2018-09-04T02:33:55.325Z,24.46
2018-09-04T02:34:55.285Z,24.49
2018-09-04T02:35:55.236Z,24.46
2018-09-04T02:36:55.193Z,24.43
2018-09-04T02:37:55.149Z,24.43
2018-09-04T02:38:55.103Z,24.45
2018-09-04T02:39:55.060Z,24.35
2018-09-04T02:40:55.017Z,24.40
2018-09-04T02:41:54.974Z,24.47
2018-09-04T02:42:54.928Z,24.37
2018-09-04T02:43:54.884Z,24.39
2018-09-04T02:44:54.840Z,24.37
2018-09-04T02:45:54.796Z,24.39
2018-09-04T02:46:54.754Z,24.37
2018-09-04T02:47:54.708Z,24.40
2018-09-04T02:48:54.666Z,24.43
2018-09-04T02:49:54.621Z,24.40
2018-09-04T02:50:54.575Z,24.40
2018-09-04T02:51:54.532Z,24.35
2018-09-04T02:52:54.488Z,24.42
2018-09-04T02:53:54.444Z,24.37
2018-09-04T02:54:54.400Z,24.37
2018-09-04T02:55:54.356Z,24.42
2018-09-04T02:56:54.313Z,24.43
2018-09-04T02:57:54.269Z,24.34
2018-09-04T02:58:54.224Z,24.42
2018-09-04T02:59:54.180Z,24.43
2018-09-04T03:00:54.138Z,24.37
2018-09-04T03:01:54.094Z,24.40
2018-09-04T03:02:54.051Z,24.39
2018-09-04T03:03:54.004Z,24.40
2018-09-04T03:04:53.965Z,24.34
2018-09-04T03:05:53.916Z,24.39
2018-09-04T03:06:53.872Z,24.40
2018-09-04T03:07:53.834Z,24.35
2018-09-04T03:08:53.785Z,24.35
2018-09-04T03:09:53.741Z,24.34
2018-09-04T03:10:53.696Z,24.40
2018-09-04T03:11:53.652Z,24.27
2018-09-04T03:12:53.612Z,24.37
2018-09-04T03:13:53.624Z,24.39
2018-09-04T03:14:53.521Z,24.34
2018-09-04T03:15:53.476Z,24.42
2018-09-04T03:16:53.434Z,24.39
2018-09-04T03:17:53.388Z,24.37
2018-09-04T03:18:53.344Z,24.35
2018-09-04T03:19:53.300Z,24.37
2018-09-04T03:20:53.257Z,24.45
2018-09-04T03:21:53.214Z,24.31
2018-09-04T03:22:53.167Z,24.35
2018-09-04T03:23:53.125Z,24.28
2018-09-04T03:24:53.080Z,24.28
2018-09-04T03:25:53.038Z,24.31
2018-09-04T03:26:53.002Z,24.30
2018-09-04T03:27:52.948Z,24.35
2018-09-04T03:28:52.906Z,24.28
2018-09-04T03:29:52.862Z,24.22
2018-09-04T03:30:52.815Z,24.25
2018-09-04T03:31:52.774Z,24.39
2018-09-04T03:32:52.728Z,24.32
2018-09-04T03:33:52.684Z,24.28
2018-09-04T03:34:52.639Z,24.31
2018-09-04T03:35:52.595Z,24.30
2018-09-04T03:36:52.551Z,24.30
2018-09-04T03:37:52.511Z,24.35
2018-09-04T03:38:52.463Z,24.28
2018-09-04T03:39:52.421Z,24.27
2018-09-04T03:40:52.376Z,24.31
2018-09-04T03:41:52.331Z,24.31
2018-09-04T03:42:52.289Z,24.27
2018-09-04T03:43:52.243Z,24.30
2018-09-04T03:44:52.200Z,24.25
2018-09-04T03:45:52.156Z,24.25
2018-09-04T03:46:52.128Z,24.31
2018-09-04T03:47:52.079Z,24.27
2018-09-04T03:48:52.023Z,24.25
2018-09-04T03:49:51.980Z,24.27
2018-09-04T03:50:51.935Z,24.25
2018-09-04T03:51:51.891Z,24.31
2018-09-04T03:52:51.847Z,24.28
2018-09-04T03:53:51.804Z,24.24
2018-09-04T03:54:51.758Z,24.28
2018-09-04T03:55:51.715Z,24.34
2018-09-04T03:56:51.670Z,24.25
2018-09-04T03:57:51.627Z,24.28
2018-09-04T03:58:51.582Z,24.32
2018-09-04T03:59:51.539Z,24.28
2018-09-04T04:00:51.494Z,24.24
2018-09-04T04:01:51.450Z,24.25
2018-09-04T04:02:51.408Z,24.30
2018-09-04T04:03:51.370Z,24.22
2018-09-04T04:04:51.321Z,24.28
2018-09-04T04:05:51.276Z,24.28
2018-09-04T04:06:51.230Z,24.34
2018-09-04T04:07:51.191Z,24.25
2018-09-04T04:08:51.142Z,24.22
2018-09-04T04:09:51.098Z,24.22
2018-09-04T04:10:51.054Z,24.30
2018-09-04T04:11:51.037Z,24.25
2018-09-04T04:12:50.966Z,24.28
2018-09-04T04:13:50.922Z,24.22
2018-09-04T04:14:50.877Z,24.30
2018-09-04T04:15:50.833Z,24.24
2018-09-04T04:16:50.792Z,24.30
2018-09-04T04:17:50.745Z,24.27
2018-09-04T04:18:50.701Z,24.25
2018-09-04T04:19:50.657Z,24.25
2018-09-04T04:20:50.613Z,24.24
2018-09-04T04:21:50.569Z,24.30
2018-09-04T04:22:50.524Z,24.30
2018-09-04T04:23:50.515Z,24.31
2018-09-04T04:24:50.437Z,24.27
2018-09-04T04:25:50.393Z,24.25
2018-09-04T04:26:50.358Z,24.30
2018-09-04T04:27:50.304Z,24.21
2018-09-04T04:28:50.266Z,24.24
2018-09-04T04:29:50.216Z,24.24
2018-09-04T04:30:50.172Z,24.30
2018-09-04T04:31:50.129Z,24.24
2018-09-04T04:32:50.084Z,24.27
2018-09-04T04:33:50.040Z,24.25
2018-09-04T04:34:49.996Z,24.24
2018-09-04T04:35:49.953Z,24.21
2018-09-04T04:36:49.907Z,24.25
2018-09-04T04:37:49.864Z,24.25
2018-09-04T04:38:49.819Z,24.22
2018-09-04T04:39:49.815Z,24.30
2018-09-04T04:40:49.737Z,24.24
2018-09-04T04:41:49.687Z,24.24
2018-09-04T04:42:49.644Z,24.28
2018-09-04T04:43:49.598Z,24.25
2018-09-04T04:44:49.555Z,24.27
2018-09-04T04:45:49.512Z,24.30
2018-09-04T04:46:49.466Z,24.28
2018-09-04T04:47:49.485Z,24.28
2018-09-04T04:48:49.382Z,24.27
2018-09-04T04:49:49.341Z,24.21
2018-09-04T04:50:49.290Z,24.27
2018-09-04T04:51:49.246Z,24.20
2018-09-04T04:52:49.202Z,24.20
2018-09-04T04:53:49.158Z,24.27
2018-09-04T04:54:49.113Z,24.21
2018-09-04T04:55:49.078Z,24.20
2018-09-04T04:56:49.025Z,24.25
2018-09-04T04:57:48.982Z,24.22
2018-09-04T04:58:48.937Z,24.31
2018-09-04T04:59:48.893Z,24.22
2018-09-04T05:00:48.849Z,24.30
2018-09-04T05:01:48.806Z,24.31
2018-09-04T05:02:48.760Z,24.25
2018-09-04T05:03:48.716Z,24.20
2018-09-04T05:04:48.672Z,24.30
2018-09-04T05:05:48.628Z,24.27
2018-09-04T05:06:48.584Z,24.27
2018-09-04T05:07:48.539Z,24.22
2018-09-04T05:08:48.499Z,24.30
2018-09-04T05:09:48.452Z,24.31
2018-09-04T05:10:48.407Z,24.30
2018-09-04T05:11:48.363Z,24.27
2018-09-04T05:12:48.319Z,24.27
2018-09-04T05:13:48.275Z,24.27
2018-09-04T05:14:48.237Z,24.30
2018-09-04T05:15:48.187Z,24.30
2018-09-04T05:16:48.142Z,24.27
2018-09-04T05:17:48.099Z,24.30
2018-09-04T05:18:48.054Z,24.25
2018-09-04T05:19:48.011Z,24.30
2018-09-04T05:20:47.966Z,24.30
2018-09-04T05:21:47.923Z,24.27
2018-09-04T05:22:47.952Z,24.27
2018-09-04T05:23:47.833Z,24.22
2018-09-04T05:24:47.791Z,24.27
2018-09-04T05:25:47.749Z,24.27
2018-09-04T05:26:47.701Z,24.21
2018-09-04T05:27:47.657Z,24.27
2018-09-04T05:28:47.613Z,24.22
2018-09-04T05:29:47.570Z,24.22
2018-09-04T05:30:47.524Z,24.22
2018-09-04T05:31:47.481Z,24.28
2018-09-04T05:32:47.439Z,24.22
2018-09-04T05:33:47.393Z,24.24
2018-09-04T05:34:47.348Z,24.30
2018-09-04T05:35:47.304Z,24.32
2018-09-04T05:36:47.329Z,24.24
2018-09-04T05:37:47.222Z,24.31
2018-09-04T05:38:47.173Z,24.40
2018-09-04T05:39:47.128Z,24.32
2018-09-04T05:40:47.085Z,24.30
2018-09-04T05:41:47.040Z,24.40
2018-09-04T05:42:46.996Z,24.39
2018-09-04T05:43:46.952Z,24.35
2018-09-04T05:44:46.907Z,24.37
2018-09-04T05:45:46.866Z,24.34
2018-09-04T05:46:46.819Z,24.39
2018-09-04T05:47:46.777Z,24.42
2018-09-04T05:48:46.731Z,24.42
2018-09-04T05:49:46.691Z,24.46
2018-09-04T05:50:46.642Z,24.42
2018-09-04T05:51:46.598Z,24.40
2018-09-04T05:52:46.554Z,24.46
2018-09-04T05:53:46.511Z,24.47
2018-09-04T05:54:46.466Z,24.42
2018-09-04T05:55:46.426Z,24.43
2018-09-04T05:56:46.378Z,24.46
2018-09-04T05:57:46.334Z,24.47
2018-09-04T05:58:46.289Z,24.58
2018-09-04T05:59:46.246Z,24.62
2018-09-04T06:00:46.201Z,24.52
2018-09-04T06:01:46.159Z,24.67
2018-09-04T06:02:46.114Z,24.71
2018-09-04T06:03:46.068Z,24.84
2018-09-04T06:04:46.025Z,24.85
2018-09-04T06:05:45.981Z,24.84
2018-09-04T06:06:45.937Z,24.87
2018-09-04T06:07:45.893Z,24.95
2018-09-04T06:08:45.848Z,24.90
2018-09-04T06:09:45.810Z,24.91
2018-09-04T06:10:45.761Z,24.77
2018-09-04T06:11:45.716Z,24.61
2018-09-04T06:12:45.675Z,24.47
2018-09-04T06:13:45.638Z,24.42
2018-09-04T06:14:45.588Z,24.24
2018-09-04T06:15:45.541Z,24.13
2018-09-04T06:16:45.507Z,24.13
2018-09-04T06:17:45.454Z,24.08
2018-09-04T06:18:45.410Z,23.94
2018-09-04T06:19:45.365Z,23.91
2018-09-04T06:20:45.322Z,23.78
2018-09-04T06:21:45.278Z,23.75
2018-09-04T06:22:45.233Z,23.72
2018-09-04T06:23:45.189Z,23.72
2018-09-04T06:24:45.146Z,23.72
2018-09-04T06:25:45.102Z,23.80
2018-09-04T06:26:45.057Z,23.79
2018-09-04T06:27:45.014Z,23.75
2018-09-04T06:28:44.970Z,23.80
2018-09-04T06:29:44.927Z,23.76
2018-09-04T06:30:44.882Z,23.78
2018-09-04T06:31:44.838Z,23.84
2018-09-04T06:32:44.794Z,23.84
2018-09-04T06:33:44.750Z,23.84
2018-09-04T06:34:44.705Z,23.83
2018-09-04T06:35:44.661Z,23.72
2018-09-04T06:36:44.773Z,23.75
2018-09-04T06:37:44.575Z,23.83
2018-09-04T06:38:44.593Z,23.78
2018-09-04T06:39:44.486Z,23.84
2018-09-04T06:40:44.442Z,23.76
2018-09-04T06:41:44.398Z,23.76
2018-09-04T06:42:44.354Z,23.75
2018-09-04T06:43:44.329Z,23.73
2018-09-04T06:44:44.268Z,23.69
2018-09-04T06:45:44.225Z,23.60
2018-09-04T06:46:44.187Z,23.60
2018-09-04T06:47:44.137Z,23.55
2018-09-04T06:48:44.090Z,23.55
2018-09-04T06:49:44.045Z,23.66
2018-09-04T06:50:44.003Z,23.72
2018-09-04T06:51:43.957Z,23.79
2018-09-04T06:52:43.913Z,23.79
2018-09-04T06:53:43.873Z,23.72
2018-09-04T06:54:43.966Z,23.75
2018-09-04T06:55:43.782Z,23.60
2018-09-04T06:56:43.738Z,23.53
2018-09-04T06:57:43.699Z,23.65
2018-09-04T06:58:43.649Z,23.84
2018-09-04T06:59:43.606Z,23.78
2018-09-04T07:00:43.562Z,23.91
2018-09-04T07:01:43.519Z,23.97
2018-09-04T07:02:43.473Z,23.94
2018-09-04T07:03:43.431Z,24.09
2018-09-04T07:04:43.388Z,24.03
2018-09-04T07:05:43.342Z,24.10
2018-09-04T07:06:43.299Z,24.27
2018-09-04T07:07:43.255Z,24.43
2018-09-04T07:08:43.216Z,24.34
2018-09-04T07:09:43.169Z,24.35
2018-09-04T07:10:43.125Z,24.49
2018-09-04T07:11:43.085Z,24.55
2018-09-04T07:12:43.038Z,24.62
2018-09-04T07:13:42.996Z,24.64
2018-09-04T07:14:42.952Z,24.68
2018-09-04T07:15:42.908Z,24.77
2018-09-04T07:16:42.871Z,24.87
2018-09-04T07:17:42.820Z,24.85
2018-09-04T07:18:42.781Z,24.95
2018-09-04T07:19:42.739Z,24.95
2018-09-04T07:20:42.693Z,24.98
2018-09-04T07:21:42.649Z,25.10
2018-09-04T07:22:42.606Z,25.03
2018-09-04T07:23:42.582Z,25.06
2018-09-04T07:24:42.521Z,25.06
2018-09-04T07:25:42.478Z,25.08
2018-09-04T07:26:42.438Z,25.05
2018-09-04T07:27:42.393Z,25.14
2018-09-04T07:28:42.352Z,25.18
2018-09-04T07:29:42.308Z,25.23
2018-09-04T07:30:42.265Z,25.18
2018-09-04T07:31:42.222Z,25.30
2018-09-04T07:32:42.180Z,25.23
2018-09-04T07:33:42.138Z,25.21
2018-09-04T07:34:42.094Z,25.18
2018-09-04T07:35:42.054Z,25.17
2018-09-04T07:36:42.011Z,25.18
2018-09-04T07:37:41.969Z,25.32
2018-09-04T07:38:41.926Z,25.40
2018-09-04T07:39:41.884Z,25.43
2018-09-04T07:40:41.843Z,25.43
2018-09-04T07:41:41.801Z,25.42
2018-09-04T07:42:41.757Z,25.46
2018-09-04T07:43:41.717Z,25.60
2018-09-04T07:44:41.675Z,25.58
2018-09-04T07:45:41.634Z,25.60
2018-09-04T07:46:41.591Z,25.57
2018-09-04T07:47:41.550Z,25.69
2018-09-04T07:48:41.508Z,25.76
2018-09-04T07:49:41.468Z,25.73
2018-09-04T07:50:41.436Z,25.76
2018-09-04T07:51:41.385Z,25.76
2018-09-04T07:52:41.343Z,25.80
2018-09-04T07:53:41.403Z,25.76
2018-09-04T07:54:41.310Z,25.64
2018-09-04T07:55:41.219Z,25.61
2018-09-04T07:56:41.178Z,25.62
2018-09-04T07:57:41.137Z,25.61
2018-09-04T07:58:41.095Z,25.72
2018-09-04T07:59:41.055Z,25.80
2018-09-04T08:00:41.014Z,25.75
2018-09-04T08:01:40.974Z,25.62
2018-09-04T08:02:40.932Z,25.58
2018-09-04T08:03:40.893Z,25.57
2018-09-04T08:04:40.851Z,25.60
2018-09-04T08:05:40.810Z,25.70
2018-09-04T08:06:40.769Z,25.62
2018-09-04T08:07:40.729Z,25.75
2018-09-04T08:08:40.692Z,25.75
2018-09-04T08:09:40.648Z,25.73
2018-09-04T08:10:40.613Z,25.90
2018-09-04T08:11:40.566Z,25.87
2018-09-04T08:12:40.527Z,25.94
2018-09-04T08:13:40.486Z,25.97
2018-09-04T08:14:40.445Z,25.98
2018-09-04T08:15:40.408Z,26.06
2018-09-04T08:16:40.366Z,26.10
2018-09-04T08:17:40.329Z,26.07
2018-09-04T08:18:40.288Z,26.09
2018-09-04T08:19:40.246Z,25.95
2018-09-04T08:20:40.374Z,25.85
2018-09-04T08:21:40.167Z,25.92
2018-09-04T08:22:40.127Z,25.94
2018-09-04T08:23:40.086Z,26.01
2018-09-04T08:24:40.048Z,26.09
2018-09-04T08:25:40.009Z,26.06
2018-09-04T08:26:39.969Z,26.15
2018-09-04T08:27:39.931Z,26.10
2018-09-04T08:28:39.891Z,26.09
2018-09-04T08:29:39.853Z,26.17
2018-09-04T08:30:39.812Z,26.21
2018-09-04T08:31:39.774Z,26.25
2018-09-04T08:32:39.767Z,26.23
2018-09-04T08:33:39.695Z,26.25
2018-09-04T08:34:39.657Z,26.18
2018-09-04T08:35:39.619Z,26.26
2018-09-04T08:36:39.580Z,26.12
2018-09-04T08:37:39.543Z,26.17
2018-09-04T08:38:39.506Z,26.10
2018-09-04T08:39:39.465Z,26.20
2018-09-04T08:40:39.431Z,26.18
2018-09-04T08:41:39.390Z,26.20
2018-09-04T08:42:39.351Z,26.20
2018-09-04T08:43:39.313Z,26.25
2018-09-04T08:44:39.275Z,26.17
2018-09-04T08:45:39.240Z,26.25
2018-09-04T08:46:39.198Z,26.21
2018-09-04T08:47:39.162Z,26.13
2018-09-04T08:48:39.123Z,26.18
2018-09-04T08:49:39.089Z,26.13
2018-09-04T08:50:39.168Z,26.09
2018-09-04T08:51:39.026Z,26.12
2018-09-04T08:52:39.072Z,26.13
2018-09-04T08:53:38.966Z,26.15
2018-09-04T08:54:38.905Z,26.17
2018-09-04T08:55:38.858Z,26.12
2018-09-04T08:56:38.821Z,26.20
2018-09-04T08:57:38.784Z,26.20
2018-09-04T08:58:38.821Z,26.20
2018-09-04T08:59:38.708Z,26.21
2018-09-04T09:00:38.681Z,26.15
2018-09-04T09:01:38.634Z,26.18
2018-09-04T09:02:38.597Z,26.17
2018-09-04T09:03:38.620Z,26.17
2018-09-04T09:04:38.526Z,26.09
2018-09-04T09:05:38.554Z,26.07
2018-09-04T09:06:38.447Z,25.98
2018-09-04T09:07:38.409Z,25.99
2018-09-04T09:08:38.375Z,25.97
2018-09-04T09:09:38.333Z,26.10
2018-09-04T09:10:38.329Z,26.09
2018-09-04T09:11:38.257Z,26.13
2018-09-04T09:12:38.224Z,25.98
2018-09-04T09:13:38.182Z,26.06
2018-09-04T09:14:38.143Z,26.09
2018-09-04T09:15:38.104Z,25.97
2018-09-04T09:16:38.070Z,25.98
2018-09-04T09:17:38.026Z,25.99
2018-09-04T09:18:37.986Z,25.95
2018-09-04T09:19:37.951Z,25.80
2018-09-04T09:20:37.908Z,25.83
2018-09-04T09:21:37.868Z,25.83
2018-09-04T09:22:37.873Z,25.88
2018-09-04T09:23:37.788Z,25.94
2018-09-04T09:24:37.748Z,25.87
2018-09-04T09:25:37.708Z,25.87
2018-09-04T09:26:37.666Z,25.90
2018-09-04T09:27:37.626Z,25.85
2018-09-04T09:28:37.586Z,25.85
2018-09-04T09:29:37.545Z,25.79
2018-09-04T09:30:37.504Z,25.91
2018-09-04T09:31:37.463Z,25.80
2018-09-04T09:32:37.422Z,25.91
2018-09-04T09:33:37.380Z,25.90
2018-09-04T09:34:37.339Z,25.95
2018-09-04T09:35:37.298Z,25.94
2018-09-04T09:36:37.409Z,25.91
2018-09-04T09:37:37.216Z,25.92
2018-09-04T09:38:37.173Z,25.97
2018-09-04T09:39:37.131Z,25.85
2018-09-04T09:40:37.091Z,25.99
2018-09-04T09:41:37.050Z,26.01
2018-09-04T09:42:37.008Z,25.97
2018-09-04T09:43:36.965Z,25.88
2018-09-04T09:44:36.925Z,25.98
2018-09-04T09:45:36.882Z,25.83
2018-09-04T09:46:36.840Z,25.83
2018-09-04T09:47:36.799Z,25.88
2018-09-04T09:48:36.759Z,25.80
2018-09-04T09:49:36.715Z,25.87
2018-09-04T09:50:36.697Z,25.87
2018-09-04T09:51:36.632Z,25.85
2018-09-04T09:52:36.702Z,25.80
2018-09-04T09:53:36.795Z,25.87
2018-09-04T09:54:36.505Z,25.87
2018-09-04T09:55:36.562Z,25.85
2018-09-04T09:56:36.441Z,25.82
2018-09-04T09:57:36.437Z,25.90
2018-09-04T09:58:36.336Z,25.88
2018-09-04T09:59:36.334Z,25.79
2018-09-04T10:00:36.252Z,25.91
2018-09-04T10:01:36.244Z,25.87
2018-09-04T10:02:36.167Z,25.82
2018-09-04T10:03:36.124Z,25.87
2018-09-04T10:04:36.083Z,25.83
2018-09-04T10:05:36.041Z,25.83
2018-09-04T10:06:35.998Z,25.85
2018-09-04T10:07:35.996Z,25.88
2018-09-04T10:08:35.914Z,25.90
2018-09-04T10:09:35.872Z,25.79
2018-09-04T10:10:35.852Z,25.76
2018-09-04T10:11:35.785Z,25.90
2018-09-04T10:12:35.745Z,25.85
2018-09-04T10:13:35.708Z,25.85
2018-09-04T10:14:35.659Z,25.83
2018-09-04T10:15:35.616Z,25.85
2018-09-04T10:16:35.574Z,25.83
2018-09-04T10:17:35.531Z,25.76
2018-09-04T10:18:35.488Z,25.82
2018-09-04T10:19:35.445Z,25.85
2018-09-04T10:20:35.404Z,25.73
2018-09-04T10:21:35.361Z,25.85
2018-09-04T10:22:35.318Z,25.79
2018-09-04T10:23:35.276Z,25.82
2018-09-04T10:24:35.233Z,25.80
2018-09-04T10:25:35.191Z,25.76
2018-09-04T10:26:35.290Z,25.73
2018-09-04T10:27:35.105Z,25.77
2018-09-04T10:28:35.064Z,25.72
2018-09-04T10:29:35.021Z,25.62
2018-09-04T10:30:34.983Z,25.72
2018-09-04T10:31:34.934Z,25.65
2018-09-04T10:32:34.892Z,25.69
2018-09-04T10:33:34.853Z,25.61
2018-09-04T10:34:34.805Z,25.76
2018-09-04T10:35:34.766Z,25.70
2018-09-04T10:36:34.722Z,25.73
2018-09-04T10:37:34.679Z,25.72
2018-09-04T10:38:34.637Z,25.75
2018-09-04T10:39:34.593Z,25.65
2018-09-04T10:40:34.596Z,25.64
2018-09-04T10:41:34.507Z,25.64
2018-09-04T10:42:34.464Z,25.64
2018-09-04T10:43:34.422Z,25.69
2018-09-04T10:44:34.382Z,25.61
2018-09-04T10:45:34.339Z,25.62
2018-09-04T10:46:34.293Z,25.62
2018-09-04T10:47:34.251Z,25.62
2018-09-04T10:48:34.208Z,25.62
2018-09-04T10:49:34.176Z,25.60
2018-09-04T10:50:34.122Z,25.57
2018-09-04T10:51:34.080Z,25.57
2018-09-04T10:52:34.037Z,25.55
2018-09-04T10:53:33.995Z,25.52
2018-09-04T10:54:33.951Z,25.57
2018-09-04T10:55:33.925Z,25.50
2018-09-04T10:56:33.917Z,25.58
2018-09-04T10:57:33.853Z,25.60
2018-09-04T10:58:33.780Z,25.57
2018-09-04T10:59:33.738Z,25.57
2018-09-04T11:00:33.695Z,25.60
2018-09-04T11:01:33.652Z,25.62
2018-09-04T11:02:33.609Z,25.64
2018-09-04T11:03:33.566Z,25.61
2018-09-04T11:04:33.524Z,25.58
2018-09-04T11:05:33.482Z,25.64
2018-09-04T11:06:33.438Z,25.64
2018-09-04T11:07:33.397Z,25.64
2018-09-04T11:08:33.353Z,25.64
2018-09-04T11:09:33.409Z,25.65
2018-09-04T11:10:33.267Z,25.62
2018-09-04T11:11:33.227Z,25.61
2018-09-04T11:12:33.184Z,25.61
2018-09-04T11:13:33.140Z,25.60
2018-09-04T11:14:33.096Z,25.67
2018-09-04T11:15:33.057Z,25.69
2018-09-04T11:16:33.011Z,25.70
2018-09-04T11:17:32.970Z,25.64
2018-09-04T11:18:32.975Z,25.65
2018-09-04T11:19:32.883Z,25.73
2018-09-04T11:20:32.841Z,25.75
2018-09-04T11:21:32.798Z,25.75
2018-09-04T11:22:32.753Z,25.70
2018-09-04T11:23:32.753Z,25.73
2018-09-04T11:24:32.669Z,25.72
2018-09-04T11:25:32.627Z,25.75
2018-09-04T11:26:32.685Z,25.72
2018-09-04T11:27:32.542Z,25.76
2018-09-04T11:28:32.498Z,25.72
2018-09-04T11:29:32.457Z,25.75
2018-09-04T11:30:32.464Z,25.62
2018-09-04T11:31:32.370Z,25.64
2018-09-04T11:32:32.328Z,25.65
2018-09-04T11:33:32.297Z,25.67
2018-09-04T11:34:32.242Z,25.64
2018-09-04T11:35:32.200Z,25.69
2018-09-04T11:36:32.156Z,25.67
2018-09-04T11:37:32.115Z,25.64
2018-09-04T11:38:32.072Z,25.65
2018-09-04T11:39:32.032Z,25.64
2018-09-04T11:40:31.992Z,25.61
2018-09-04T11:41:31.944Z,25.65
2018-09-04T11:42:31.900Z,25.61
2018-09-04T11:43:31.865Z,25.62
2018-09-04T11:44:31.815Z,25.62
2018-09-04T11:45:31.773Z,25.67
2018-09-04T11:46:31.729Z,25.65
2018-09-04T11:47:31.690Z,25.67
2018-09-04T11:48:31.651Z,25.62
2018-09-04T11:49:31.607Z,25.65
2018-09-04T11:50:31.558Z,25.65
2018-09-04T11:51:31.515Z,25.61
2018-09-04T11:52:31.549Z,25.64
2018-09-04T11:53:31.430Z,25.61
2018-09-04T11:54:31.387Z,25.69
2018-09-04T11:55:31.344Z,25.67
2018-09-04T11:56:31.302Z,25.67
2018-09-04T11:57:31.259Z,25.69
2018-09-04T11:58:31.214Z,25.67
2018-09-04T11:59:31.182Z,25.61
2018-09-04T12:00:31.131Z,25.65
2018-09-04T12:01:31.089Z,25.60
2018-09-04T12:02:31.045Z,25.64
2018-09-04T12:03:31.002Z,25.57
2018-09-04T12:04:30.960Z,25.58
2018-09-04T12:05:30.917Z,25.64
2018-09-04T12:06:30.906Z,25.64
2018-09-04T12:07:30.831Z,25.60
2018-09-04T12:08:30.788Z,25.60
2018-09-04T12:09:30.745Z,25.60
2018-09-04T12:10:30.702Z,25.60
2018-09-04T12:11:30.660Z,25.60
2018-09-04T12:12:30.759Z,25.61
2018-09-04T12:13:30.579Z,25.60
2018-09-04T12:14:30.531Z,25.58
2018-09-04T12:15:30.492Z,25.60
2018-09-04T12:16:30.446Z,25.57
2018-09-04T12:17:30.405Z,25.60
2018-09-04T12:18:30.360Z,25.58
2018-09-04T12:19:30.317Z,25.55
2018-09-04T12:20:30.275Z,25.55
2018-09-04T12:21:30.232Z,25.57
2018-09-04T12:22:30.189Z,25.58
2018-09-04T12:23:30.146Z,25.58
2018-09-04T12:24:30.104Z,25.51
2018-09-04T12:25:30.065Z,25.51
2018-09-04T12:26:30.018Z,25.52
2018-09-04T12:27:29.975Z,25.55
2018-09-04T12:28:29.933Z,25.52
2018-09-04T12:29:29.896Z,25.52
2018-09-04T12:30:29.850Z,25.58
2018-09-04T12:31:29.804Z,25.54
2018-09-04T12:32:29.779Z,25.54
2018-09-04T12:33:29.718Z,25.52
2018-09-04T12:34:29.675Z,25.58
2018-09-04T12:35:29.633Z,25.57
2018-09-04T12:36:29.676Z,25.52
2018-09-04T12:37:29.547Z,25.52
2018-09-04T12:38:29.504Z,25.55
2018-09-04T12:39:29.461Z,25.55
2018-09-04T12:40:29.418Z,25.60
2018-09-04T12:41:29.375Z,25.51
2018-09-04T12:42:29.414Z,25.55
2018-09-04T12:43:29.289Z,25.54
2018-09-04T12:44:29.246Z,25.52
2018-09-04T12:45:29.250Z,25.47
2018-09-04T12:46:29.160Z,25.57
2018-09-04T12:47:29.119Z,25.50
2018-09-04T12:48:29.129Z,25.51
2018-09-04T12:49:29.032Z,25.54
2018-09-04T12:50:28.989Z,25.55
2018-09-04T12:51:28.945Z,25.50